Latest Weather Observations for Albury

IDV60801

Issued at 3:35 am EST Sunday 21 September 2014 (issued every 30 minutes, with the page automatically refreshed every 10 minutes)

About weather observations | Map of weather stations | Latest weather observations for VIC | Other Formats
Station Details ID: 072160 Name: ALBURY AIRPORT AWS Lat: -36.07 Lon: 146.95 Height: 163.5 m
Data from the previous 72 hours. | See also: Recent months at Albury
Date/Time
EST
Temp
°C
App
Temp
°C
Dew
Point
Rel
Hum
%
Delta-T
°C
Wind Press
QNH
hPa
Press
MSL
hPa
Rain
since 9 am
mm
Dir
 
Spd
km/h
Gust
km/h
Spd
kts
Gust
kts
21/03:30am 4.9 2.2 2.9 87 0.8 N 6 9 3 5 1026.8 1026.9 0.0
21/03:00am 5.0 3.5 3.2 88 0.7 WNW 0 0 0 0 1026.8 1026.9 0.0
21/02:30am 5.2 3.4 3.5 89 0.7 N 2 6 1 3 1027.0 1027.1 0.0
21/02:00am 5.6 4.2 3.6 87 0.8 CALM 0 0 0 0 1027.2 1027.3 0.0
21/01:36am 5.2 2.4 3.4 88 0.8 N 7 9 4 5 1027.3 1027.4 0.0
21/01:30am 5.2 2.6 3.4 88 0.8 N 6 9 3 5 1027.4 1027.5 0.0
21/01:22am 5.3 2.8 3.5 88 0.8 NW 6 7 3 4 1027.5 1027.6 0.0
21/01:21am 5.4 2.9 3.7 89 0.7 NW 6 7 3 4 1027.5 1027.6 0.0
21/01:01am 5.6 4.2 3.6 87 0.8 CALM 0 0 0 0 1027.5 1027.6 0.0
21/01:00am 5.6 4.2 3.6 87 0.8 CALM 0 0 0 0 1027.5 1027.6 0.0
21/12:30am 6.4 4.0 4.2 86 1.0 N 6 9 3 5 1027.4 1027.5 0.0
21/12:00am 6.4 4.7 4.1 85 1.0 NNW 2 6 1 3 1027.4 1027.5 0.0
 
Date/Time
EST
Temp
°C
App
Temp
°C
Dew
Point
Rel
Hum
%
Delta-T
°C
Wind Press
QNH
hPa
Press
MSL
hPa
Rain
since 9 am
mm
Dir
 
Spd
km/h
Gust
km/h
Spd
kts
Gust
kts
20/11:30pm 6.7 4.2 3.9 82 1.2 N 6 7 3 4 1027.3 1027.4 0.0
20/11:00pm 6.9 5.6 4.0 82 1.2 CALM 0 0 0 0 1027.4 1027.5 0.0
20/10:34pm 7.8 5.5 4.6 80 1.4 N 6 9 3 5 1027.4 1027.5 0.0
20/10:30pm 8.0 6.5 4.8 80 1.4 N 2 9 1 5 1027.3 1027.4 0.0
20/10:15pm 7.7 6.4 4.3 79 1.5 CALM 0 0 0 0 1027.2 1027.3 0.0
20/10:00pm 8.5 7.4 5.3 80 1.4 CALM 0 0 0 0 1027.1 1027.2 0.0
20/09:30pm 9.2 8.1 5.2 76 1.8 CALM 0 0 0 0 1026.8 1026.9 0.0
20/09:00pm 9.9 8.4 5.1 72 2.2 SSE 2 6 1 3 1026.5 1026.6 0.0
20/08:30pm 9.7 7.7 4.5 70 2.3 SE 4 7 2 4 1026.2 1026.3 0.0
20/08:00pm 11.5 9.3 5.4 66 2.8 NE 6 7 3 4 1025.9 1026.0 0.0
20/07:30pm 12.9 10.5 4.1 55 4.0 W 6 7 3 4 1025.4 1025.5 0.0
20/07:00pm 12.5 9.9 4.2 57 3.8 NW 7 11 4 6 1025.1 1025.2 0.0
20/06:30pm 13.9 10.8 5.5 57 4.0 NW 11 13 6 7 1024.8 1024.9 0.0
20/06:00pm 14.7 11.8 6.3 57 4.1 WNW 11 17 6 9 1024.5 1024.6 0.0
20/05:30pm 16.5 12.9 6.9 53 4.8 WNW 15 19 8 10 1024.0 1024.1 0.0
20/05:00pm 17.1 13.3 7.5 53 4.8 W 17 20 9 11 1023.9 1024.0 0.0
20/04:30pm 17.7 14.6 7.4 51 5.2 WNW 13 19 7 10 1023.6 1023.7 0.0
20/04:00pm 18.2 15.2 7.9 51 5.3 WNW 13 22 7 12 1023.4 1023.5 0.0
20/03:30pm 18.2 15.5 5.8 44 6.1 WSW 9 13 5 7 1023.5 1023.6 0.0
20/03:00pm 18.1 15.6 6.6 47 5.7 SSE 9 15 5 8 1023.5 1023.6 0.0
20/02:30pm 18.1 15.5 6.3 46 5.9 NNE 9 13 5 7 1023.6 1023.7 0.0
20/02:00pm 17.4 14.7 5.7 46 5.7 E 9 13 5 7 1023.8 1023.9 0.0
20/01:30pm 17.1 14.6 6.6 50 5.2 ESE 9 15 5 8 1024.0 1024.1 0.0
20/01:00pm 16.6 14.1 6.4 51 5.0 SE 9 15 5 8 1024.3 1024.4 0.0
20/12:30pm 16.3 13.6 5.6 49 5.2 S 9 19 5 10 1024.6 1024.7 0.0
20/12:00pm 15.6 12.7 4.6 48 5.2 ESE 9 17 5 9 1024.9 1025.0 0.0
20/11:30am 15.3 11.3 4.9 50 4.9 S 15 20 8 11 1025.3 1025.4 0.0
20/11:00am 14.6 10.4 4.0 49 4.9 SE 15 24 8 13 1025.3 1025.4 0.0
20/10:30am 14.2 9.8 4.5 52 4.5 SE 17 20 9 11 1025.6 1025.7 0.0
20/10:00am 13.4 8.9 4.3 54 4.2 SSE 17 24 9 13 1025.6 1025.7 0.0
20/09:30am 12.6 7.6 3.8 55 4.0 SSE 19 26 10 14 1025.5 1025.6 0.0
20/09:00am 11.5 9.2 5.6 67 2.7 SSE 7 15 4 8 1025.5 1025.6 0.0
20/08:30am 9.6 7.3 5.8 77 1.8 S 7 9 4 5 1025.5 1025.6 0.0
20/08:25am 9.2 7.0 5.4 77 1.7 S 6 9 3 5 1025.5 1025.6 0.0
20/08:07am 8.5 7.4 5.1 79 1.5 CALM 0 0 0 0 1025.2 1025.3 0.0
20/08:00am 8.2 7.1 5.1 81 1.4 CALM 0 0 0 0 1025.2 1025.3 0.0
20/07:43am 7.3 5.8 5.1 86 1.0 SE 2 6 1 3 1025.1 1025.2 0.0
20/07:30am 6.9 5.0 4.9 87 0.9 E 4 7 2 4 1025.0 1025.1 0.0
20/07:27am 6.9 5.0 4.9 87 0.9 E 4 7 2 4 1024.9 1025.0 0.0
20/07:24am 6.7 4.8 5.0 89 0.8 ESE 4 7 2 4 1024.9 1025.0 0.0
20/07:00am 4.5 3.2 3.9 96 0.3 CALM 0 0 0 0 1024.7 1024.8 0.0
20/06:30am 3.3 1.7 2.6 95 0.3 CALM 0 0 0 0 1024.2 1024.3 0.0
20/06:00am 3.2 0.9 2.5 95 0.3 N 4 7 2 4 1024.0 1024.1 0.0
20/05:30am 2.9 0.5 2.0 94 0.4 N 4 6 2 3 1023.5 1023.6 0.0
20/05:10am 3.7 2.2 3.1 96 0.2 CALM 0 0 0 0 1023.3 1023.4 0.0
20/05:00am 4.1 2.7 3.5 96 0.2 CALM 0 0 0 0 1023.3 1023.4 0.0
20/04:30am 4.3 2.9 3.7 96 0.3 CALM 0 6 0 3 1022.9 1022.9 0.0
20/04:00am 3.7 2.2 2.8 94 0.4 CALM 0 0 0 0 1022.7 1022.7 0.0
20/03:30am 4.0 1.8 3.1 94 0.4 WSW 4 7 2 4 1022.6 1022.6 0.0
20/03:00am 3.8 2.3 2.9 94 0.4 CALM 0 0 0 0 1022.5 1022.5 0.0
20/02:30am 4.1 2.6 2.9 92 0.5 CALM 0 0 0 0 1022.5 1022.5 0.0
20/02:00am 4.7 3.3 3.5 92 0.5 CALM 0 0 0 0 1022.5 1022.5 0.0
20/01:30am 4.5 3.1 3.3 92 0.5 CALM 0 0 0 0 1022.7 1022.7 0.0
20/01:00am 4.9 3.5 3.4 90 0.6 CALM 0 0 0 0 1022.8 1022.8 0.0
20/12:30am 5.4 4.0 3.6 88 0.8 CALM 0 0 0 0 1022.9 1022.9 0.0
20/12:00am 5.6 4.2 3.8 88 0.8 CALM 0 0 0 0 1022.8 1022.8 0.0
 
Date/Time
EST
Temp
°C
App
Temp
°C
Dew
Point
Rel
Hum
%
Delta-T
°C
Wind Press
QNH
hPa
Press
MSL
hPa
Rain
since 9 am
mm
Dir
 
Spd
km/h
Gust
km/h
Spd
kts
Gust
kts
19/11:30pm 6.0 4.7 4.0 87 0.9 CALM 0 0 0 0 1022.9 1022.9 0.0
19/11:00pm 6.8 5.5 4.3 84 1.1 CALM 0 4 0 2 1023.0 1023.1 0.0
19/10:30pm 7.8 6.2 4.6 80 1.4 ENE 2 9 1 5 1022.9 1022.9 0.0
19/10:00pm 8.4 7.1 4.2 75 1.8 CALM 0 4 0 2 1022.9 1022.9 0.0
19/09:30pm 8.8 6.8 4.4 74 2.0 N 4 7 2 4 1022.8 1022.8 0.0
19/09:00pm 9.7 8.4 4.3 69 2.4 CALM 0 0 0 0 1022.8 1022.8 0.0
19/08:30pm 10.0 7.4 4.4 68 2.5 NE 7 11 4 6 1022.6 1022.6 0.0
19/08:00pm 11.0 7.0 4.9 66 2.8 W 15 17 8 9 1022.5 1022.5 0.0
19/07:30pm 11.6 7.6 5.0 64 3.0 W 15 19 8 10 1022.0 1022.1 0.0
19/07:00pm 11.4 7.8 5.1 65 2.9 WNW 13 15 7 8 1021.8 1021.9 0.0
19/06:30pm 12.8 9.7 5.5 61 3.4 WNW 11 17 6 9 1021.5 1021.6 0.0
19/06:00pm 14.0 10.1 5.4 56 4.1 W 15 19 8 10 1021.2 1021.3 0.0
19/05:30pm 15.2 10.9 5.4 52 4.7 W 17 24 9 13 1021.1 1021.2 0.0
19/05:00pm 15.8 10.9 5.1 49 5.1 W 20 28 11 15 1020.9 1021.0 0.0
19/04:30pm 16.3 11.6 3.0 41 6.1 WNW 17 22 9 12 1020.8 1020.9 0.0
19/04:00pm 16.2 12.5 4.3 45 5.6 WNW 13 19 7 10 1020.8 1020.9 0.0
19/03:30pm 15.8 11.8 4.8 48 5.2 WNW 15 24 8 13 1020.9 1021.0 0.0
19/03:00pm 15.5 11.3 5.7 52 4.7 W 17 22 9 12 1020.9 1021.0 0.0
19/02:30pm 15.2 11.6 5.1 51 4.8 W 13 20 7 11 1021.0 1021.1 0.0
19/02:00pm 15.6 12.8 5.2 50 5.0 NW 9 17 5 9 1021.3 1021.4 0.0
19/01:30pm 15.7 13.3 4.1 46 5.4 ENE 6 9 3 5 1021.6 1021.7 0.0
19/01:00pm 14.8 12.3 3.6 47 5.1 E 6 11 3 6 1021.9 1022.0 0.0
19/12:30pm 14.6 12.3 4.6 51 4.7 WNW 6 13 3 7 1022.5 1022.5 0.0
19/12:00pm 13.6 11.0 4.2 53 4.3 SE 7 11 4 6 1022.8 1022.8 0.0
19/11:30am 13.6 11.1 4.7 55 4.1 ESE 7 13 4 7 1023.3 1023.4 0.0
19/11:00am 12.5 10.2 4.7 59 3.6 SE 6 11 3 6 1023.7 1023.8 0.0
19/10:30am 12.2 10.1 6.0 66 2.9 SSE 6 11 3 6 1024.1 1024.2 0.0
19/10:00am 10.8 9.0 5.3 69 2.5 N 4 9 2 5 1024.2 1024.3 0.0
19/09:30am 9.9 7.6 4.7 70 2.3 ESE 6 9 3 5 1024.4 1024.5 0.0
19/09:00am 8.9 7.8 5.1 77 1.7 CALM 0 6 0 3 1024.4 1024.5 0.0
19/08:30am 7.1 5.8 4.1 81 1.3 CALM 0 0 0 0 1024.5 1024.6 0.0
19/08:00am 5.3 3.8 3.0 85 0.9 CALM 0 0 0 0 1024.3 1024.4 0.0
19/07:30am 4.4 2.6 3.2 92 0.5 SSE 2 7 1 4 1024.5 1024.6 0.0
19/07:00am 3.0 1.4 2.4 96 0.2 CALM 0 0 0 0 1024.3 1024.4 0.0
19/06:30am 1.9 0.1 1.5 97 0.2 CALM 0 0 0 0 1023.9 1024.0 0.0
19/06:00am 1.6 -0.2 1.0 96 0.2 CALM 0 0 0 0 1023.4 1023.5 0.0
19/05:30am 1.6 -0.2 0.9 95 0.3 CALM 0 0 0 0 1023.1 1023.2 0.0
19/05:00am 2.1 0.3 1.4 95 0.3 CALM 0 0 0 0 1022.7 1022.7 0.0
19/04:30am 2.9 0.9 2.5 97 0.2 NNW 2 6 1 3 1022.5 1022.5 0.0
19/04:00am 2.1 0.3 1.4 95 0.3 CALM 0 0 0 0 1022.4 1022.4 0.0
19/03:30am 2.1 0.3 1.2 94 0.3 CALM 0 0 0 0 1022.3 1022.3 0.0
19/03:00am 2.6 0.9 1.7 94 0.3 CALM 0 0 0 0 1022.4 1022.4 0.0
19/02:30am 3.0 1.3 2.1 94 0.4 CALM 0 6 0 3 1022.6 1022.6 0.0
19/02:00am 3.2 1.6 2.5 95 0.3 CALM 0 0 0 0 1022.7 1022.7 0.0
19/01:30am 3.2 1.6 2.3 94 0.4 CALM 0 0 0 0 1023.1 1023.2 0.0
19/01:00am 3.8 2.2 2.6 92 0.5 CALM 0 0 0 0 1023.2 1023.3 0.0
19/12:30am 3.6 0.8 2.3 91 0.5 NE 6 7 3 4 1023.0 1023.1 0.0
19/12:00am 4.5 3.0 3.0 90 0.6 CALM 0 0 0 0 1023.1 1023.2 0.0
 
Date/Time
EST
Temp
°C
App
Temp
°C
Dew
Point
Rel
Hum
%
Delta-T
°C
Wind Press
QNH
hPa
Press
MSL
hPa
Rain
since 9 am
mm
Dir
 
Spd
km/h
Gust
km/h
Spd
kts
Gust
kts
18/11:30pm 5.0 3.5 3.2 88 0.7 CALM 0 0 0 0 1023.1 1023.2 0.0
18/11:00pm 5.2 2.6 3.1 86 0.9 NE 6 6 3 3 1023.1 1023.2 0.0
18/10:30pm 5.7 3.4 2.9 82 1.2 NNE 4 7 2 4 1023.1 1023.2 0.0
18/10:00pm 6.7 5.3 3.3 79 1.4 CALM 0 0 0 0 1023.1 1023.2 0.0
18/09:30pm 8.3 5.3 4.3 76 1.8 SW 9 17 5 9 1022.9 1022.9 0.0
18/09:00pm 8.7 6.3 4.1 73 2.0 NW 6 11 3 6 1022.9 1022.9 0.0
18/08:30pm 8.1 4.3 3.9 75 1.8 W 13 17 7 9 1022.6 1022.6 0.0
18/08:00pm 10.1 6.0 4.3 67 2.6 W 15 22 8 12 1022.5 1022.5 0.0
18/07:30pm 10.3 6.2 4.2 66 2.7 W 15 22 8 12 1022.3 1022.3 0.0
18/07:00pm 10.3 5.2 4.2 66 2.7 W 20 24 11 13 1021.7 1021.8 0.0
18/06:30pm 11.1 6.3 4.8 65 2.9 W 19 24 10 13 1021.7 1021.8 0.0
18/06:05pm 11.8 6.3 4.1 59 3.5 W 22 35 12 19 1021.5 1021.6 0.0
18/06:00pm 11.9 6.1 4.2 59 3.5 W 24 35 13 19 1021.4 1021.5 0.0
18/05:46pm 12.8 7.8 4.5 57 3.8 W 20 28 11 15 1021.3 1021.4 0.0
18/05:30pm 13.1 8.0 4.3 55 4.0 W 20 28 11 15 1021.1 1021.2 0.0
18/05:00pm 13.6 7.7 3.9 52 4.4 W 24 32 13 17 1020.7 1020.8 0.0
18/04:40pm 13.7 7.8 4.0 52 4.5 W 24 32 13 17 1020.6 1020.7 0.0
18/04:30pm 13.9 8.1 4.2 52 4.5 W 24 33 13 18 1020.5 1020.6 0.0
18/04:00pm 14.4 9.6 4.7 52 4.5 WNW 19 28 10 15 1020.4 1020.5 0.0
18/03:56pm 14.4 10.0 4.7 52 4.5 WNW 17 24 9 13 1020.4 1020.5 0.0
18/03:45pm 13.8 8.8 4.7 54 4.2 NW 20 30 11 16 1020.4 1020.5 0.0
18/03:30pm 14.4 9.5 5.2 54 4.4 W 20 32 11 17 1020.4 1020.5 0.0
18/03:00pm 13.6 8.1 3.9 52 4.4 W 22 32 12 17 1020.4 1020.5 0.0
18/02:30pm 14.2 8.3 3.9 50 4.7 W 24 32 13 17 1020.3 1020.4 0.0
18/02:00pm 14.7 9.8 5.2 53 4.5 W 20 32 11 17 1020.3 1020.4 0.0
18/01:30pm 13.5 9.7 3.8 52 4.4 WSW 13 19 7 10 1020.5 1020.6 0.0
18/01:00pm 13.0 8.9 2.5 49 4.6 WSW 13 22 7 12 1020.7 1020.8 0.0
18/12:30pm 13.0 9.9 3.4 52 4.3 WNW 9 13 5 7 1021.0 1021.1 0.0
18/12:00pm 13.3 8.5 4.5 55 4.1 WSW 19 24 10 13 1021.1 1021.2 0.0
18/11:30am 12.0 8.1 3.5 56 3.8 WNW 13 28 7 15 1021.4 1021.5 0.0
18/11:00am 11.6 6.7 3.9 59 3.5 WNW 19 24 10 13 1021.7 1021.8 0.0
18/10:30am 11.0 6.9 4.2 63 3.1 W 15 20 8 11 1021.9 1022.0 0.0
18/10:00am 10.1 6.1 4.9 70 2.4 W 15 24 8 13 1022.0 1022.1 0.0
18/09:30am 9.2 4.7 4.2 71 2.2 W 17 22 9 12 1022.2 1022.2 0.0
18/09:00am 8.5 4.4 4.5 76 1.8 W 15 19 8 10 1021.9 1022.0 0.0
18/08:30am 7.4 3.5 3.6 77 1.6 W 13 17 7 9 1021.9 1022.0 0.0
18/08:00am 6.8 2.5 3.2 78 1.5 W 15 19 8 10 1021.6 1021.7 0.0
18/07:30am 6.1 2.2 3.3 82 1.2 W 13 17 7 9 1021.3 1021.4 0.0
18/07:00am 5.0 2.2 3.0 87 0.8 W 7 13 4 7 1021.1 1021.2 0.0
18/06:30am 3.8 0.8 1.8 87 0.8 WNW 7 9 4 5 1020.6 1020.7 0.0
18/06:00am 4.1 0.3 2.0 86 0.8 W 11 13 6 7 1020.4 1020.5 0.0
18/05:37am 4.6 -0.6 2.5 86 0.9 W 19 24 10 13 1020.0 1020.1 0.0
18/05:30am 4.6 -0.8 2.6 87 0.8 W 20 24 11 13 1019.8 1019.9 0.0
18/05:21am 4.4 -0.8 2.4 87 0.8 WNW 19 22 10 12 1019.7 1019.8 0.0
18/05:03am 4.7 -0.5 2.4 85 0.9 W 19 22 10 12 1019.6 1019.7 0.0
18/05:00am 4.7 -0.5 2.2 84 1.0 W 19 24 10 13 1019.6 1019.7 0.0
18/04:30am 5.2 -0.2 2.4 82 1.1 W 20 28 11 15 1019.1 1019.2 0.0
18/04:00am 4.6 0.5 2.0 83 1.0 W 13 17 7 9 1019.0 1019.1 0.0

Other Formats:

Comma delimited format used in spreadsheet applications
http://www.bom.gov.au/fwo/IDV60801/IDV60801.95896.axf

JavaScript Object Notation format (JSON) in row-major order
http://www.bom.gov.au/fwo/IDV60801/IDV60801.95896.json